TimeMDT,TemperatureF,Dew PointF,Humidity,Sea Level PressureIn,VisibilityMPH,Wind Direction,Wind SpeedMPH,Gust SpeedMPH,PrecipitationIn,Events,Conditions,WindDirDegrees,DateUTC
12:00 AM,53,36,40,,,West,11.5,,,,,270,2013-10-25 06:00:00
12:00 AM,52.5,36.0,53,-9999,-9999.0,West,11.5,-,N/A,,Unknown,270,2013-10-25 06:00:00
1:00 AM,50.9,35.4,55,-9999,-9999.0,WNW,11.5,-,N/A,,Unknown,300,2013-10-25 07:00:00
2:00 AM,50.5,35.2,56,-9999,-9999.0,NW,15.0,-,N/A,,Unknown,310,2013-10-25 08:00:00
3:00 AM,47.5,31.3,53,-9999,-9999.0,NW,6.9,-,N/A,,Unknown,320,2013-10-25 09:00:00
4:00 AM,38.8,30.7,73,-9999,-9999.0,NNW,10.4,-,N/A,,Unknown,330,2013-10-25 10:00:00
5:00 AM,37.8,29.3,72,-9999,-9999.0,NW,10.4,-,N/A,,Unknown,310,2013-10-25 11:00:00
6:00 AM,39,28,54,,,NW,9.2,,,,,320,2013-10-25 12:00:00
6:00 AM,39.2,28.2,65,-9999,-9999.0,NW,9.2,-,N/A,,Unknown,320,2013-10-25 12:00:00
7:00 AM,39.0,28.0,65,-9999,-9999.0,NW,11.5,-,N/A,,Unknown,320,2013-10-25 13:00:00
8:00 AM,34.7,28.2,77,-9999,-9999.0,NW,8.1,-,N/A,,Unknown,320,2013-10-25 14:00:00
9:00 AM,40.1,29.8,67,-9999,-9999.0,NW,11.5,-,N/A,,Unknown,320,2013-10-25 15:00:00
10:00 AM,48.2,33.4,57,-9999,-9999.0,NW,6.9,-,N/A,,Unknown,310,2013-10-25 16:00:00
11:00 AM,54.9,32.0,42,-9999,-9999.0,West,9.2,-,N/A,,Unknown,270,2013-10-25 17:00:00
12:00 PM,58,32,25,,,West,4.6,,,,,270,2013-10-25 18:00:00
12:00 PM,58.5,32.0,37,-9999,-9999.0,West,4.6,-,N/A,,Unknown,270,2013-10-25 18:00:00
1:00 PM,59.0,33.3,38,-9999,-9999.0,NE,10.4,-,N/A,,Unknown,50,2013-10-25 19:00:00
2:00 PM,60.8,31.8,34,-9999,-9999.0,ESE,3.5,-,N/A,,Unknown,110,2013-10-25 20:00:00
3:00 PM,63.0,31.8,31,-9999,-9999.0,SSE,3.5,-,N/A,,Unknown,150,2013-10-25 21:00:00
4:00 PM,63.3,31.5,30,-9999,-9999.0,SE,3.5,-,N/A,,Unknown,140,2013-10-25 22:00:00
5:00 PM,58.8,31.5,36,-9999,-9999.0,ENE,10.4,-,N/A,,Unknown,70,2013-10-25 23:00:00
6:00 PM,54,33,32,,,ENE,4.6,,,,,70,2013-10-26 00:00:00
6:00 PM,53.6,31.3,43,-9999,-9999.0,ENE,4.6,-,N/A,,Unknown,70,2013-10-26 00:00:00
7:00 PM,40.5,29.1,64,-9999,-9999.0,North,2.3,-,N/A,,Unknown,10,2013-10-26 01:00:00
8:00 PM,38.3,31.6,77,-9999,-9999.0,NNW,6.9,-,N/A,,Unknown,330,2013-10-26 02:00:00
9:00 PM,38.1,31.6,77,-9999,-9999.0,NW,11.5,-,N/A,,Unknown,320,2013-10-26 03:00:00
10:00 PM,38.7,32.0,77,-9999,-9999.0,NW,12.7,-,N/A,,Unknown,320,2013-10-26 04:00:00
11:00 PM,37.4,31.1,78,-9999,-9999.0,NNW,11.5,-,N/A,,Unknown,330,2013-10-26 05:00:00